Terminal Aerodrome Forecast
Issued by NWS

Current Version | Previous Version | Graphics & Text | Print | Product List | Glossary On
Versions: 1 2 3 4 5 6 7 8 9 10 11 12 13
461
FTUS41 KILN 221128
TAFLCK
TAF
KLCK 221128Z 2212/2312 02012KT P6SM FEW035
     FM221800 02010KT P6SM SKC
     FM230000 02006KT P6SM FEW250
     FM230400 06006KT P6SM FEW250=

USA.gov is the U.S. government's official web portal to all federal, state and local government web resources and services.